Treherne, Canada
Current Conditions -  °F | °C
As of 3:00 PM on Friday 31 Oct 2014 (Local Time) from CYPG Reporting Station
Broken Clouds Broken Clouds  
Wind Chill: 33°   Ceiling: 22000
Heat Index: 41°   Visibility: 15mi
Dew Point: 16°   Wind: 15mph
Humidity: 36%   Direction: 160°SSE
Pressure: 30.4"   Gusts: 22mph
Location:  49.63°N, 98.7°W
Report Text: CYPG 312000Z 16013G19KT 15SM BKN220 05/M09 A3040 RMK CI2SLP311
Loading
Personal Weather Stations






























Interactive Weather Map
Tropical Storm Tracking
New forecast layout! Learn more

10-Day Weather Forecast

Advertisements
Track Severe Weather on mobile